F/V Oceanis — FHLH — position and weather

sailwx.info

Track history (hours):
 
Tides and Currents Weather Stations Pressure Air Temp Water Temp Dewpoint Dewpoint Depression Visibility Wind Speed Wind Dir Waves Ship Positions

F/V Oceanis

Last reported at 2016-May-26 02:33 UTC. Time now 2016-May-26 02:48 UTC.
Position N 44°49' W 001°37'.

Type: Other ship. MMSI: 228385000.

Date/timePositionNaut miles runAvg speedWind from/ knotsBaromVisibWave heightAir tempDewpointWater temp
2016-May-26 02:33N 44°49' W 001°37'0 0.1
2016-May-26 01:26N 44°49' W 001°37'0 0.0
2016-May-26 00:33N 44°49' W 001°37'0 0.0
2016-May-25 22:24N 44°49' W 001°37'5 0.7
2016-May-25 14:24N 44°45' W 001°30'7 8.2
2016-May-25 13:33N 44°40' W 001°24'8 8.1
2016-May-25 12:33N 44°34' W 001°16'8 7.7
2016-May-25 11:33N 44°40' W 001°09'1 0.5
2016-May-25 10:33N 44°39' W 001°09'0 0.1
2016-May-25 09:33N 44°39' W 001°09'0 0.0
2016-May-25 08:33N 44°39' W 001°09'0 0.0
2016-May-25 07:33N 44°39' W 001°09'0 0.0
2016-May-25 06:33N 44°39' W 001°09'0 0.0
2016-May-25 05:33N 44°39' W 001°09'0 0.0
2016-May-25 04:33N 44°39' W 001°09'0 0.0
2016-May-25 03:33N 44°39' W 001°09'0 0.0
2016-May-25 02:34N 44°39' W 001°09'0 0.0
2016-May-25 01:33N 44°39' W 001°09'0 0.0
2016-May-25 00:33N 44°39' W 001°09'0 0.0
2016-May-24 23:33N 44°39' W 001°09'0 0.0
2016-May-24 22:33N 44°39' W 001°09'0 0.0
2016-May-24 21:33N 44°39' W 001°09'0 0.0
2016-May-24 20:33N 44°39' W 001°09'0 0.0
2016-May-24 19:33N 44°39' W 001°09'0 0.0
2016-May-24 18:33N 44°39' W 001°09'0 0.0
2016-May-24 17:33N 44°39' W 001°09'0 0.0
2016-May-24 16:33N 44°39' W 001°09'2 1.7
2016-May-24 15:33N 44°40' W 001°11'8 7.9
2016-May-24 14:33N 44°35' W 001°20'9 8.6
2016-May-24 13:33N 44°41' W 001°29'8 8.4
2016-May-24 12:33N 44°47' W 001°37'  
2016-May-21 20:23N 45°04' W 002°02'0 0.1
2016-May-21 19:28N 45°04' W 002°02'2 2.4
2016-May-21 18:32N 45°04' W 002°05'2 2.0
2016-May-21 17:33N 45°03' W 002°08'7 6.0
2016-May-21 16:28N 45°04' W 002°17'1 0.8
2016-May-21 15:07N 45°04' W 002°19'0 0.4
2016-May-21 14:33N 45°04' W 002°18'1 0.7
2016-May-21 13:33N 45°04' W 002°17'0 0.1
2016-May-21 11:33N 45°04' W 002°17'8 1.9
2016-May-21 07:29N 45°04' W 002°06'4 3.8
2016-May-21 06:33N 45°01' W 002°08'0 0.4
2016-May-21 05:33N 45°01' W 002°08'1 0.5
2016-May-21 04:33N 45°01' W 002°09'0 0.0
2016-May-21 03:33N 45°01' W 002°09'0 0.0
2016-May-21 02:19N 45°01' W 002°09'0 0.0
2016-May-21 01:31N 45°01' W 002°09'0 0.0
2016-May-20 19:20N 45°01' W 002°09'0 0.0
2016-May-20 18:27N 45°01' W 002°09'29 0.9
2016-May-19 09:29N 44°42' W 001°38'2 1.7
2016-May-19 08:29N 44°44' W 001°38'2 0.7
2016-May-19 06:05N 44°42' W 001°37'1 1.0
2016-May-19 05:33N 44°41' W 001°37'1 0.1
2016-May-18 19:33N 44°42' W 001°39'1 0.5
2016-May-18 18:23N 44°42' W 001°38'1 0.6
2016-May-18 17:14N 44°42' W 001°37'4 5.3
2016-May-18 16:33N 44°40' W 001°33'7 6.9
2016-May-18 15:33N 44°38' W 001°24'7 6.7
2016-May-18 14:33N 44°35' W 001°15'7 6.8
2016-May-18 13:33N 44°40' W 001°10'1 0.9
2016-May-18 12:33N 44°39' W 001°09'0 0.0
2016-May-18 11:33N 44°39' W 001°09'0 0.0
2016-May-18 10:33N 44°39' W 001°09'0 0.0
2016-May-18 09:33N 44°39' W 001°09'0 0.0
2016-May-18 08:33N 44°39' W 001°09'0 0.0
2016-May-18 07:33N 44°39' W 001°09'0 0.0
2016-May-18 06:33N 44°39' W 001°09'0 0.0
2016-May-18 05:33N 44°39' W 001°09'0 0.0
2016-May-18 04:33N 44°39' W 001°09'0 0.0
2016-May-18 03:33N 44°39' W 001°09'0 0.0
2016-May-18 02:33N 44°39' W 001°09'0 0.0
2016-May-18 01:33N 44°39' W 001°09'0 0.0
2016-May-18 00:33N 44°39' W 001°09'0 0.0
2016-May-17 23:33N 44°39' W 001°09'0 0.0
2016-May-17 22:33N 44°39' W 001°09'0 0.0
2016-May-17 21:30N 44°39' W 001°09'0 0.0
2016-May-17 20:33N 44°39' W 001°09'0 0.0
2016-May-17 19:33N 44°39' W 001°09'0 0.0
2016-May-17 18:33N 44°39' W 001°09'0 0.0
2016-May-17 17:33N 44°39' W 001°09'0 0.0
2016-May-17 16:33N 44°39' W 001°09'0 0.0
2016-May-17 15:33N 44°39' W 001°09'0 0.0
2016-May-17 14:33N 44°39' W 001°09'0 0.0
2016-May-17 13:33N 44°39' W 001°09'0 0.0
2016-May-17 12:31N 44°39' W 001°09'0 0.0
2016-May-17 11:32N 44°39' W 001°09'0 0.0
2016-May-17 10:33N 44°39' W 001°09'0 0.0
2016-May-17 09:33N 44°39' W 001°09'0 0.0
2016-May-17 08:33N 44°39' W 001°09'0 0.0
2016-May-17 07:33N 44°39' W 001°09'0 0.0
2016-May-17 06:33N 44°39' W 001°09'0 0.0
2016-May-16 09:24N 44°39' W 001°09'0 0.0
2016-May-16 08:28N 44°39' W 001°09'0 0.0
2016-May-16 07:17N 44°39' W 001°09'  
Track history (hours):
 
Tides and Currents Weather Stations Pressure Air Temp Water Temp Dewpoint Dewpoint Depression Visibility Wind Speed Wind Dir Waves Ship Positions

F/V Oceanis

Last reported at 2016-May-26 02:33 UTC. Time now 2016-May-26 02:48 UTC.
Position N 44°49' W 001°37'.

Type: Other ship. MMSI: 228385000.

Date/timePositionNaut miles runAvg speedWind from/ knotsBaromVisibWave heightAir tempDewpointWater temp
2016-May-26 02:33N 44°49' W 001°37'0 0.1
2016-May-26 01:26N 44°49' W 001°37'0 0.0
2016-May-26 00:33N 44°49' W 001°37'0 0.0
2016-May-25 22:24N 44°49' W 001°37'5 0.7
2016-May-25 14:24N 44°45' W 001°30'7 8.2
2016-May-25 13:33N 44°40' W 001°24'8 8.1
2016-May-25 12:33N 44°34' W 001°16'8 7.7
2016-May-25 11:33N 44°40' W 001°09'1 0.5
2016-May-25 10:33N 44°39' W 001°09'0 0.1
2016-May-25 09:33N 44°39' W 001°09'0 0.0
2016-May-25 08:33N 44°39' W 001°09'0 0.0
2016-May-25 07:33N 44°39' W 001°09'0 0.0
2016-May-25 06:33N 44°39' W 001°09'0 0.0
2016-May-25 05:33N 44°39' W 001°09'0 0.0
2016-May-25 04:33N 44°39' W 001°09'0 0.0
2016-May-25 03:33N 44°39' W 001°09'0 0.0
2016-May-25 02:34N 44°39' W 001°09'0 0.0
2016-May-25 01:33N 44°39' W 001°09'0 0.0
2016-May-25 00:33N 44°39' W 001°09'0 0.0
2016-May-24 23:33N 44°39' W 001°09'0 0.0
2016-May-24 22:33N 44°39' W 001°09'0 0.0
2016-May-24 21:33N 44°39' W 001°09'0 0.0
2016-May-24 20:33N 44°39' W 001°09'0 0.0
2016-May-24 19:33N 44°39' W 001°09'0 0.0
2016-May-24 18:33N 44°39' W 001°09'0 0.0
2016-May-24 17:33N 44°39' W 001°09'0 0.0
2016-May-24 16:33N 44°39' W 001°09'2 1.7
2016-May-24 15:33N 44°40' W 001°11'8 7.9
2016-May-24 14:33N 44°35' W 001°20'9 8.6
2016-May-24 13:33N 44°41' W 001°29'8 8.4
2016-May-24 12:33N 44°47' W 001°37'  
2016-May-21 20:23N 45°04' W 002°02'0 0.1
2016-May-21 19:28N 45°04' W 002°02'2 2.4
2016-May-21 18:32N 45°04' W 002°05'2 2.0
2016-May-21 17:33N 45°03' W 002°08'7 6.0
2016-May-21 16:28N 45°04' W 002°17'1 0.8
2016-May-21 15:07N 45°04' W 002°19'0 0.4
2016-May-21 14:33N 45°04' W 002°18'1 0.7
2016-May-21 13:33N 45°04' W 002°17'0 0.1
2016-May-21 11:33N 45°04' W 002°17'8 1.9
2016-May-21 07:29N 45°04' W 002°06'4 3.8
2016-May-21 06:33N 45°01' W 002°08'0 0.4
2016-May-21 05:33N 45°01' W 002°08'1 0.5
2016-May-21 04:33N 45°01' W 002°09'0 0.0
2016-May-21 03:33N 45°01' W 002°09'0 0.0
2016-May-21 02:19N 45°01' W 002°09'0 0.0
2016-May-21 01:31N 45°01' W 002°09'0 0.0
2016-May-20 19:20N 45°01' W 002°09'0 0.0
2016-May-20 18:27N 45°01' W 002°09'29 0.9
2016-May-19 09:29N 44°42' W 001°38'2 1.7
2016-May-19 08:29N 44°44' W 001°38'2 0.7
2016-May-19 06:05N 44°42' W 001°37'1 1.0
2016-May-19 05:33N 44°41' W 001°37'1 0.1
2016-May-18 19:33N 44°42' W 001°39'1 0.5
2016-May-18 18:23N 44°42' W 001°38'1 0.6
2016-May-18 17:14N 44°42' W 001°37'4 5.3
2016-May-18 16:33N 44°40' W 001°33'7 6.9
2016-May-18 15:33N 44°38' W 001°24'7 6.7
2016-May-18 14:33N 44°35' W 001°15'7 6.8
2016-May-18 13:33N 44°40' W 001°10'1 0.9
2016-May-18 12:33N 44°39' W 001°09'0 0.0
2016-May-18 11:33N 44°39' W 001°09'0 0.0
2016-May-18 10:33N 44°39' W 001°09'0 0.0
2016-May-18 09:33N 44°39' W 001°09'0 0.0
2016-May-18 08:33N 44°39' W 001°09'0 0.0
2016-May-18 07:33N 44°39' W 001°09'0 0.0
2016-May-18 06:33N 44°39' W 001°09'0 0.0
2016-May-18 05:33N 44°39' W 001°09'0 0.0
2016-May-18 04:33N 44°39' W 001°09'0 0.0
2016-May-18 03:33N 44°39' W 001°09'0 0.0
2016-May-18 02:33N 44°39' W 001°09'0 0.0
2016-May-18 01:33N 44°39' W 001°09'0 0.0
2016-May-18 00:33N 44°39' W 001°09'0 0.0
2016-May-17 23:33N 44°39' W 001°09'0 0.0
2016-May-17 22:33N 44°39' W 001°09'0 0.0
2016-May-17 21:30N 44°39' W 001°09'0 0.0
2016-May-17 20:33N 44°39' W 001°09'0 0.0
2016-May-17 19:33N 44°39' W 001°09'0 0.0
2016-May-17 18:33N 44°39' W 001°09'0 0.0
2016-May-17 17:33N 44°39' W 001°09'0 0.0
2016-May-17 16:33N 44°39' W 001°09'0 0.0
2016-May-17 15:33N 44°39' W 001°09'0 0.0
2016-May-17 14:33N 44°39' W 001°09'0 0.0
2016-May-17 13:33N 44°39' W 001°09'0 0.0
2016-May-17 12:31N 44°39' W 001°09'0 0.0
2016-May-17 11:32N 44°39' W 001°09'0 0.0
2016-May-17 10:33N 44°39' W 001°09'0 0.0
2016-May-17 09:33N 44°39' W 001°09'0 0.0
2016-May-17 08:33N 44°39' W 001°09'0 0.0
2016-May-17 07:33N 44°39' W 001°09'0 0.0
2016-May-17 06:33N 44°39' W 001°09'0 0.0
2016-May-16 09:24N 44°39' W 001°09'0 0.0
2016-May-16 08:28N 44°39' W 001°09'0 0.0
2016-May-16 07:17N 44°39' W 001°09'  

Dump ship's entire track history